Terminal Aerodrome Forecast
Issued by NWS

Home | Current Version | Previous Version | Text Only | Print | Product List | Glossary On
Versions: 1 2 3 4 5 6 7 8 9 10 11 12 13 14 15 16 17 18 19 20 21 22 23 24 25
000
FTUS41 KPBZ 220200 AAB
TAFFKL
TAF AMD
KFKL 220224Z 2202/2224 VRB05KT P6SM BKN070
     FM220600 VRB03KT 5SM BR BKN015
     FM221400 21008KT 6SM -RA BKN025
      AMD LTD TO CLD VIS AND WIND=

USA.gov is the U.S. government's official web portal to all federal, state and local government web resources and services.